sensor_id;sensor_type;location;lat;lon;timestamp;P1;durP1;ratioP1;P2;durP2;ratioP2
29902;SDS011;30288;50.514;9.678;2022-07-06T00:00:50;5.57;;;2.97;;
29902;SDS011;30288;50.514;9.678;2022-07-06T00:03:07;8.35;;;3.03;;
29902;SDS011;30288;50.514;9.678;2022-07-06T00:05:19;7.32;;;2.90;;
29902;SDS011;30288;50.514;9.678;2022-07-06T00:07:34;8.68;;;3.38;;
29902;SDS011;30288;50.514;9.678;2022-07-06T00:09:51;9.10;;;3.25;;
29902;SDS011;30288;50.514;9.678;2022-07-06T00:12:03;9.55;;;3.25;;
29902;SDS011;30288;50.514;9.678;2022-07-06T00:14:21;9.75;;;3.63;;
29902;SDS011;30288;50.514;9.678;2022-07-06T00:16:32;9.13;;;4.03;;
29902;SDS011;30288;50.514;9.678;2022-07-06T00:18:49;9.70;;;3.30;;
29902;SDS011;30288;50.514;9.678;2022-07-06T00:21:01;8.40;;;3.58;;
29902;SDS011;30288;50.514;9.678;2022-07-06T00:23:16;8.43;;;3.53;;
29902;SDS011;30288;50.514;9.678;2022-07-06T00:25:33;6.68;;;2.80;;
29902;SDS011;30288;50.514;9.678;2022-07-06T00:27:45;7.45;;;3.63;;
29902;SDS011;30288;50.514;9.678;2022-07-06T00:30:02;8.32;;;3.22;;
29902;SDS011;30288;50.514;9.678;2022-07-06T00:32:15;11.65;;;3.40;;
29902;SDS011;30288;50.514;9.678;2022-07-06T00:34:26;6.47;;;3.22;;
29902;SDS011;30288;50.514;9.678;2022-07-06T00:36:43;10.05;;;3.17;;
29902;SDS011;30288;50.514;9.678;2022-07-06T00:38:57;7.38;;;3.00;;
29902;SDS011;30288;50.514;9.678;2022-07-06T00:41:14;9.32;;;3.75;;
29902;SDS011;30288;50.514;9.678;2022-07-06T00:43:25;10.18;;;3.60;;
29902;SDS011;30288;50.514;9.678;2022-07-06T00:45:42;9.60;;;3.38;;
29902;SDS011;30288;50.514;9.678;2022-07-06T00:47:54;7.72;;;3.50;;
29902;SDS011;30288;50.514;9.678;2022-07-06T00:50:07;9.10;;;3.80;;
29902;SDS011;30288;50.514;9.678;2022-07-06T00:52:21;9.80;;;3.20;;
29902;SDS011;30288;50.514;9.678;2022-07-06T00:54:36;6.18;;;3.22;;
29902;SDS011;30288;50.514;9.678;2022-07-06T00:56:55;6.20;;;3.28;;
29902;SDS011;30288;50.514;9.678;2022-07-06T00:59:07;6.82;;;3.33;;
29902;SDS011;30288;50.514;9.678;2022-07-06T01:01:24;9.90;;;3.47;;
29902;SDS011;30288;50.514;9.678;2022-07-06T01:03:36;8.20;;;3.80;;
29902;SDS011;30288;50.514;9.678;2022-07-06T01:05:47;7.00;;;3.10;;
29902;SDS011;30288;50.514;9.678;2022-07-06T01:08:06;7.82;;;3.08;;
29902;SDS011;30288;50.514;9.678;2022-07-06T01:10:21;9.25;;;3.63;;
29902;SDS011;30288;50.514;9.678;2022-07-06T01:12:39;7.85;;;2.97;;
29902;SDS011;30288;50.514;9.678;2022-07-06T01:14:52;5.32;;;2.80;;
29902;SDS011;30288;50.514;9.678;2022-07-06T01:17:10;7.05;;;3.10;;
29902;SDS011;30288;50.514;9.678;2022-07-06T01:19:23;8.25;;;3.30;;
29902;SDS011;30288;50.514;9.678;2022-07-06T01:21:39;7.72;;;3.70;;
29902;SDS011;30288;50.514;9.678;2022-07-06T01:23:56;7.97;;;3.35;;
29902;SDS011;30288;50.514;9.678;2022-07-06T01:26:12;10.45;;;4.25;;
29902;SDS011;30288;50.514;9.678;2022-07-06T01:28:27;7.88;;;4.20;;
29902;SDS011;30288;50.514;9.678;2022-07-06T01:30:38;10.70;;;3.67;;
29902;SDS011;30288;50.514;9.678;2022-07-06T01:32:55;7.40;;;3.20;;
29902;SDS011;30288;50.514;9.678;2022-07-06T01:35:07;6.38;;;3.33;;
29902;SDS011;30288;50.514;9.678;2022-07-06T01:37:23;6.70;;;3.55;;
29902;SDS011;30288;50.514;9.678;2022-07-06T01:39:40;7.43;;;3.33;;
29902;SDS011;30288;50.514;9.678;2022-07-06T01:41:52;9.75;;;3.58;;
29902;SDS011;30288;50.514;9.678;2022-07-06T01:44:10;8.07;;;3.90;;
29902;SDS011;30288;50.514;9.678;2022-07-06T01:46:22;7.80;;;3.75;;
29902;SDS011;30288;50.514;9.678;2022-07-06T01:48:35;9.02;;;4.22;;
29902;SDS011;30288;50.514;9.678;2022-07-06T01:50:52;6.90;;;3.67;;
29902;SDS011;30288;50.514;9.678;2022-07-06T01:53:06;9.15;;;3.67;;
29902;SDS011;30288;50.514;9.678;2022-07-06T01:55:24;7.60;;;4.07;;
29902;SDS011;30288;50.514;9.678;2022-07-06T01:57:37;8.82;;;4.03;;
29902;SDS011;30288;50.514;9.678;2022-07-06T01:59:54;6.63;;;3.50;;
29902;SDS011;30288;50.514;9.678;2022-07-06T02:02:05;6.82;;;3.80;;
29902;SDS011;30288;50.514;9.678;2022-07-06T02:04:17;7.65;;;4.10;;
29902;SDS011;30288;50.514;9.678;2022-07-06T02:06:36;5.63;;;3.40;;
29902;SDS011;30288;50.514;9.678;2022-07-06T02:08:51;9.80;;;4.00;;
29902;SDS011;30288;50.514;9.678;2022-07-06T02:11:09;6.78;;;4.38;;
29902;SDS011;30288;50.514;9.678;2022-07-06T02:35:13;8.20;;;4.95;;
29902;SDS011;30288;50.514;9.678;2022-07-06T02:37:30;8.65;;;4.70;;
29902;SDS011;30288;50.514;9.678;2022-07-06T02:39:41;8.52;;;4.40;;
29902;SDS011;30288;50.514;9.678;2022-07-06T02:41:56;7.35;;;5.00;;
29902;SDS011;30288;50.514;9.678;2022-07-06T02:44:14;9.02;;;4.55;;
29902;SDS011;30288;50.514;9.678;2022-07-06T02:46:26;8.35;;;4.95;;
29902;SDS011;30288;50.514;9.678;2022-07-06T02:48:45;7.63;;;4.45;;
29902;SDS011;30288;50.514;9.678;2022-07-06T02:50:59;10.20;;;4.82;;
29902;SDS011;30288;50.514;9.678;2022-07-06T02:53:17;7.22;;;5.13;;
29902;SDS011;30288;50.514;9.678;2022-07-06T02:55:28;8.35;;;5.20;;
29902;SDS011;30288;50.514;9.678;2022-07-06T02:57:39;9.02;;;5.30;;
29902;SDS011;30288;50.514;9.678;2022-07-06T02:59:56;8.00;;;5.80;;
29902;SDS011;30288;50.514;9.678;2022-07-06T03:02:07;7.13;;;5.85;;
29902;SDS011;30288;50.514;9.678;2022-07-06T03:04:24;8.38;;;6.05;;
29902;SDS011;30288;50.514;9.678;2022-07-06T03:06:38;9.75;;;6.70;;
29902;SDS011;30288;50.514;9.678;2022-07-06T03:08:49;9.18;;;6.30;;
29902;SDS011;30288;50.514;9.678;2022-07-06T03:11:06;10.02;;;6.63;;
29902;SDS011;30288;50.514;9.678;2022-07-06T03:13:18;8.95;;;5.97;;
29902;SDS011;30288;50.514;9.678;2022-07-06T03:15:36;9.85;;;6.13;;
29902;SDS011;30288;50.514;9.678;2022-07-06T03:17:47;11.48;;;6.88;;
29902;SDS011;30288;50.514;9.678;2022-07-06T03:20:05;11.65;;;6.53;;
29902;SDS011;30288;50.514;9.678;2022-07-06T03:22:20;7.95;;;5.93;;
29902;SDS011;30288;50.514;9.678;2022-07-06T03:24:31;9.68;;;6.20;;
29902;SDS011;30288;50.514;9.678;2022-07-06T03:26:48;9.05;;;6.40;;
29902;SDS011;30288;50.514;9.678;2022-07-06T03:28:59;9.63;;;5.88;;
29902;SDS011;30288;50.514;9.678;2022-07-06T03:31:16;8.63;;;5.80;;
29902;SDS011;30288;50.514;9.678;2022-07-06T03:33:27;9.63;;;5.97;;
29902;SDS011;30288;50.514;9.678;2022-07-06T03:35:38;12.45;;;6.07;;
29902;SDS011;30288;50.514;9.678;2022-07-06T03:37:58;8.80;;;6.15;;
29902;SDS011;30288;50.514;9.678;2022-07-06T03:40:11;8.40;;;6.05;;
29902;SDS011;30288;50.514;9.678;2022-07-06T03:42:28;9.95;;;6.40;;
29902;SDS011;30288;50.514;9.678;2022-07-06T03:44:39;10.40;;;5.95;;
29902;SDS011;30288;50.514;9.678;2022-07-06T03:46:50;7.22;;;5.70;;
29902;SDS011;30288;50.514;9.678;2022-07-06T03:49:08;8.25;;;6.50;;
29902;SDS011;30288;50.514;9.678;2022-07-06T03:51:19;7.15;;;5.95;;
29902;SDS011;30288;50.514;9.678;2022-07-06T03:53:39;7.60;;;6.22;;
29902;SDS011;30288;50.514;9.678;2022-07-06T03:55:50;10.50;;;6.32;;
29902;SDS011;30288;50.514;9.678;2022-07-06T03:58:14;8.45;;;6.20;;
29902;SDS011;30288;50.514;9.678;2022-07-06T04:00:27;10.05;;;6.18;;
29902;SDS011;30288;50.514;9.678;2022-07-06T04:02:44;7.22;;;5.88;;
29902;SDS011;30288;50.514;9.678;2022-07-06T04:04:55;8.77;;;6.38;;
29902;SDS011;30288;50.514;9.678;2022-07-06T04:07:06;8.15;;;5.55;;
29902;SDS011;30288;50.514;9.678;2022-07-06T04:09:26;9.75;;;5.80;;
29902;SDS011;30288;50.514;9.678;2022-07-06T04:11:37;10.43;;;5.95;;
29902;SDS011;30288;50.514;9.678;2022-07-06T04:13:54;8.85;;;5.97;;
29902;SDS011;30288;50.514;9.678;2022-07-06T04:16:06;8.68;;;5.97;;
29902;SDS011;30288;50.514;9.678;2022-07-06T04:18:18;6.95;;;5.32;;
29902;SDS011;30288;50.514;9.678;2022-07-06T04:20:35;8.65;;;5.90;;
29902;SDS011;30288;50.514;9.678;2022-07-06T04:22:48;9.15;;;5.82;;
29902;SDS011;30288;50.514;9.678;2022-07-06T04:25:08;9.52;;;5.70;;
29902;SDS011;30288;50.514;9.678;2022-07-06T04:27:20;7.95;;;5.50;;
29902;SDS011;30288;50.514;9.678;2022-07-06T04:29:37;7.60;;;4.95;;
29902;SDS011;30288;50.514;9.678;2022-07-06T04:31:48;7.70;;;5.63;;
29902;SDS011;30288;50.514;9.678;2022-07-06T04:34:00;8.27;;;5.45;;
29902;SDS011;30288;50.514;9.678;2022-07-06T04:36:18;8.45;;;5.72;;
29902;SDS011;30288;50.514;9.678;2022-07-06T04:38:29;9.27;;;5.38;;
29902;SDS011;30288;50.514;9.678;2022-07-06T04:40:49;7.43;;;6.05;;
29902;SDS011;30288;50.514;9.678;2022-07-06T04:43:00;9.50;;;5.75;;
29902;SDS011;30288;50.514;9.678;2022-07-06T04:45:17;8.25;;;5.85;;
29902;SDS011;30288;50.514;9.678;2022-07-06T04:47:29;10.18;;;6.10;;
29902;SDS011;30288;50.514;9.678;2022-07-06T04:49:42;10.68;;;5.97;;
29902;SDS011;30288;50.514;9.678;2022-07-06T04:51:59;8.48;;;5.70;;
29902;SDS011;30288;50.514;9.678;2022-07-06T04:54:10;8.65;;;5.28;;
29902;SDS011;30288;50.514;9.678;2022-07-06T04:56:30;10.38;;;4.78;;
29902;SDS011;30288;50.514;9.678;2022-07-06T04:58:41;6.88;;;4.78;;
29902;SDS011;30288;50.514;9.678;2022-07-06T05:00:58;7.68;;;5.13;;
29902;SDS011;30288;50.514;9.678;2022-07-06T05:03:10;10.98;;;4.93;;
29902;SDS011;30288;50.514;9.678;2022-07-06T05:05:21;9.88;;;4.78;;
29902;SDS011;30288;50.514;9.678;2022-07-06T05:07:39;8.13;;;4.45;;
29902;SDS011;30288;50.514;9.678;2022-07-06T05:09:50;9.23;;;4.70;;
29902;SDS011;30288;50.514;9.678;2022-07-06T05:12:10;10.00;;;4.43;;
29902;SDS011;30288;50.514;9.678;2022-07-06T05:14:21;6.90;;;3.28;;
29902;SDS011;30288;50.514;9.678;2022-07-06T05:16:32;6.50;;;3.30;;
29902;SDS011;30288;50.514;9.678;2022-07-06T05:18:50;10.75;;;3.88;;
29902;SDS011;30288;50.514;9.678;2022-07-06T05:21:01;5.18;;;2.97;;
29902;SDS011;30288;50.514;9.678;2022-07-06T05:23:18;8.85;;;3.58;;
29902;SDS011;30288;50.514;9.678;2022-07-06T05:25:29;6.45;;;3.20;;
29902;SDS011;30288;50.514;9.678;2022-07-06T05:27:49;7.18;;;3.00;;
29902;SDS011;30288;50.514;9.678;2022-07-06T05:30:00;9.45;;;2.80;;
29902;SDS011;30288;50.514;9.678;2022-07-06T05:32:12;5.60;;;3.05;;
29902;SDS011;30288;50.514;9.678;2022-07-06T05:34:29;10.52;;;3.20;;
29902;SDS011;30288;50.514;9.678;2022-07-06T05:36:40;6.80;;;2.38;;
29902;SDS011;30288;50.514;9.678;2022-07-06T05:38:57;6.10;;;2.47;;
29902;SDS011;30288;50.514;9.678;2022-07-06T05:41:08;9.52;;;2.67;;
29902;SDS011;30288;50.514;9.678;2022-07-06T05:43:22;9.55;;;2.58;;
29902;SDS011;30288;50.514;9.678;2022-07-06T05:45:39;8.40;;;2.50;;
29902;SDS011;30288;50.514;9.678;2022-07-06T05:47:50;9.02;;;2.63;;
29902;SDS011;30288;50.514;9.678;2022-07-06T05:50:14;6.63;;;2.50;;
29902;SDS011;30288;50.514;9.678;2022-07-06T05:52:31;6.10;;;2.38;;
29902;SDS011;30288;50.514;9.678;2022-07-06T05:54:42;9.50;;;2.45;;
29902;SDS011;30288;50.514;9.678;2022-07-06T05:56:59;7.22;;;2.13;;
29902;SDS011;30288;50.514;9.678;2022-07-06T05:59:13;5.00;;;2.20;;
29902;SDS011;30288;50.514;9.678;2022-07-06T06:01:30;6.28;;;2.35;;
29902;SDS011;30288;50.514;9.678;2022-07-06T06:03:41;8.77;;;2.90;;
29902;SDS011;30288;50.514;9.678;2022-07-06T06:05:58;8.50;;;2.75;;
29902;SDS011;30288;50.514;9.678;2022-07-06T06:08:10;8.73;;;2.85;;
29902;SDS011;30288;50.514;9.678;2022-07-06T06:10:21;9.30;;;2.70;;
29902;SDS011;30288;50.514;9.678;2022-07-06T06:12:39;6.03;;;2.50;;
29902;SDS011;30288;50.514;9.678;2022-07-06T06:14:54;10.07;;;2.72;;
29902;SDS011;30288;50.514;9.678;2022-07-06T06:17:11;8.85;;;2.55;;
29902;SDS011;30288;50.514;9.678;2022-07-06T06:19:22;5.50;;;2.53;;
29902;SDS011;30288;50.514;9.678;2022-07-06T06:21:34;5.05;;;2.60;;
29902;SDS011;30288;50.514;9.678;2022-07-06T06:23:45;6.28;;;2.25;;
29902;SDS011;30288;50.514;9.678;2022-07-06T06:25:56;7.07;;;2.63;;
29902;SDS011;30288;50.514;9.678;2022-07-06T06:28:08;6.05;;;2.60;;
29902;SDS011;30288;50.514;9.678;2022-07-06T06:30:31;7.05;;;2.30;;
29902;SDS011;30288;50.514;9.678;2022-07-06T06:32:42;9.35;;;2.15;;
29902;SDS011;30288;50.514;9.678;2022-07-06T06:34:53;4.80;;;1.98;;
29902;SDS011;30288;50.514;9.678;2022-07-06T06:37:10;7.22;;;2.05;;
29902;SDS011;30288;50.514;9.678;2022-07-06T06:39:21;6.18;;;2.10;;
29902;SDS011;30288;50.514;9.678;2022-07-06T06:41:38;4.70;;;2.00;;
29902;SDS011;30288;50.514;9.678;2022-07-06T06:43:50;6.45;;;2.50;;
29902;SDS011;30288;50.514;9.678;2022-07-06T06:46:04;4.20;;;1.60;;
29902;SDS011;30288;50.514;9.678;2022-07-06T06:48:21;9.07;;;2.20;;
29902;SDS011;30288;50.514;9.678;2022-07-06T06:50:33;6.00;;;1.80;;
29902;SDS011;30288;50.514;9.678;2022-07-06T06:52:44;7.07;;;2.00;;
29902;SDS011;30288;50.514;9.678;2022-07-06T07:08:56;4.32;;;1.88;;
29902;SDS011;30288;50.514;9.678;2022-07-06T07:11:09;6.47;;;2.08;;
29902;SDS011;30288;50.514;9.678;2022-07-06T07:13:20;6.03;;;2.13;;
29902;SDS011;30288;50.514;9.678;2022-07-06T07:15:37;5.00;;;2.00;;
29902;SDS011;30288;50.514;9.678;2022-07-06T07:17:49;6.63;;;1.98;;
29902;SDS011;30288;50.514;9.678;2022-07-06T07:20:09;6.35;;;2.33;;
29902;SDS011;30288;50.514;9.678;2022-07-06T07:22:23;7.82;;;2.70;;
29902;SDS011;30288;50.514;9.678;2022-07-06T07:24:40;7.45;;;2.42;;
29902;SDS011;30288;50.514;9.678;2022-07-06T07:26:51;10.27;;;2.42;;
29902;SDS011;30288;50.514;9.678;2022-07-06T07:29:03;6.65;;;2.10;;
29902;SDS011;30288;50.514;9.678;2022-07-06T07:31:19;8.00;;;1.90;;
29902;SDS011;30288;50.514;9.678;2022-07-06T07:33:31;6.15;;;2.05;;
29902;SDS011;30288;50.514;9.678;2022-07-06T07:35:52;4.07;;;1.92;;
29902;SDS011;30288;50.514;9.678;2022-07-06T07:38:04;4.28;;;1.70;;
29902;SDS011;30288;50.514;9.678;2022-07-06T07:40:21;7.18;;;1.90;;
29902;SDS011;30288;50.514;9.678;2022-07-06T07:42:33;5.63;;;1.80;;
29902;SDS011;30288;50.514;9.678;2022-07-06T07:44:47;5.68;;;1.80;;
29902;SDS011;30288;50.514;9.678;2022-07-06T07:47:05;5.05;;;1.83;;
29902;SDS011;30288;50.514;9.678;2022-07-06T07:49:17;7.22;;;1.77;;
29902;SDS011;30288;50.514;9.678;2022-07-06T07:51:31;4.78;;;1.55;;
29902;SDS011;30288;50.514;9.678;2022-07-06T07:53:49;5.57;;;1.77;;
29902;SDS011;30288;50.514;9.678;2022-07-06T07:56:00;6.05;;;1.88;;
29902;SDS011;30288;50.514;9.678;2022-07-06T07:58:18;5.57;;;1.80;;
29902;SDS011;30288;50.514;9.678;2022-07-06T08:00:30;4.25;;;1.85;;
29902;SDS011;30288;50.514;9.678;2022-07-06T08:02:41;5.18;;;1.83;;
29902;SDS011;30288;50.514;9.678;2022-07-06T08:04:58;6.45;;;1.92;;
29902;SDS011;30288;50.514;9.678;2022-07-06T08:07:11;4.82;;;1.67;;
29902;SDS011;30288;50.514;9.678;2022-07-06T08:09:29;7.97;;;2.00;;
29902;SDS011;30288;50.514;9.678;2022-07-06T08:11:41;7.97;;;1.92;;
29902;SDS011;30288;50.514;9.678;2022-07-06T08:13:52;4.38;;;1.73;;
29902;SDS011;30288;50.514;9.678;2022-07-06T08:16:04;8.45;;;1.95;;
29902;SDS011;30288;50.514;9.678;2022-07-06T08:18:17;6.13;;;1.80;;
29902;SDS011;30288;50.514;9.678;2022-07-06T08:20:29;11.10;;;2.92;;
29902;SDS011;30288;50.514;9.678;2022-07-06T08:22:43;7.00;;;1.90;;
29902;SDS011;30288;50.514;9.678;2022-07-06T08:24:55;6.07;;;1.70;;
29902;SDS011;30288;50.514;9.678;2022-07-06T08:27:13;5.13;;;1.63;;
29902;SDS011;30288;50.514;9.678;2022-07-06T08:29:24;5.72;;;1.67;;
29902;SDS011;30288;50.514;9.678;2022-07-06T08:31:36;7.30;;;1.70;;
29902;SDS011;30288;50.514;9.678;2022-07-06T08:33:53;4.88;;;1.80;;
29902;SDS011;30288;50.514;9.678;2022-07-06T08:36:05;8.13;;;1.80;;
29902;SDS011;30288;50.514;9.678;2022-07-06T08:38:25;6.13;;;1.95;;
29902;SDS011;30288;50.514;9.678;2022-07-06T08:40:37;4.35;;;1.80;;
29902;SDS011;30288;50.514;9.678;2022-07-06T08:42:56;5.22;;;1.88;;
29902;SDS011;30288;50.514;9.678;2022-07-06T08:45:10;5.32;;;1.80;;
29902;SDS011;30288;50.514;9.678;2022-07-06T08:47:27;5.72;;;1.95;;
29902;SDS011;30288;50.514;9.678;2022-07-06T08:49:40;6.20;;;2.10;;
29902;SDS011;30288;50.514;9.678;2022-07-06T08:52:00;6.72;;;2.00;;
29902;SDS011;30288;50.514;9.678;2022-07-06T08:54:16;4.75;;;1.70;;
29902;SDS011;30288;50.514;9.678;2022-07-06T08:56:35;8.75;;;2.20;;
29902;SDS011;30288;50.514;9.678;2022-07-06T08:58:55;6.78;;;2.20;;
29902;SDS011;30288;50.514;9.678;2022-07-06T09:01:13;7.20;;;2.30;;
29902;SDS011;30288;50.514;9.678;2022-07-06T09:03:25;4.60;;;1.40;;
29902;SDS011;30288;50.514;9.678;2022-07-06T09:05:39;5.40;;;1.63;;
29902;SDS011;30288;50.514;9.678;2022-07-06T09:08:02;6.10;;;1.85;;
29902;SDS011;30288;50.514;9.678;2022-07-06T09:10:16;7.03;;;1.70;;
29902;SDS011;30288;50.514;9.678;2022-07-06T09:12:35;8.07;;;2.15;;
29902;SDS011;30288;50.514;9.678;2022-07-06T09:14:46;3.92;;;1.77;;
29902;SDS011;30288;50.514;9.678;2022-07-06T09:17:00;4.05;;;1.60;;
29902;SDS011;30288;50.514;9.678;2022-07-06T09:19:15;4.97;;;1.88;;
29902;SDS011;30288;50.514;9.678;2022-07-06T09:21:24;6.82;;;2.25;;
29902;SDS011;30288;50.514;9.678;2022-07-06T09:23:33;5.47;;;2.03;;
29902;SDS011;30288;50.514;9.678;2022-07-06T09:25:54;4.72;;;2.05;;
29902;SDS011;30288;50.514;9.678;2022-07-06T09:28:06;5.63;;;2.40;;
29902;SDS011;30288;50.514;9.678;2022-07-06T09:30:17;7.95;;;2.20;;
29902;SDS011;30288;50.514;9.678;2022-07-06T09:32:37;5.00;;;1.67;;
29902;SDS011;30288;50.514;9.678;2022-07-06T09:34:50;5.13;;;1.90;;
29902;SDS011;30288;50.514;9.678;2022-07-06T09:37:02;4.75;;;1.88;;
29902;SDS011;30288;50.514;9.678;2022-07-06T09:39:17;5.10;;;1.70;;
29902;SDS011;30288;50.514;9.678;2022-07-06T09:41:35;4.10;;;1.70;;
29902;SDS011;30288;50.514;9.678;2022-07-06T09:43:47;5.65;;;1.80;;
29902;SDS011;30288;50.514;9.678;2022-07-06T09:45:58;4.05;;;1.85;;
29902;SDS011;30288;50.514;9.678;2022-07-06T09:48:11;6.70;;;1.77;;
29902;SDS011;30288;50.514;9.678;2022-07-06T09:50:21;6.93;;;1.65;;
29902;SDS011;30288;50.514;9.678;2022-07-06T09:52:39;4.85;;;1.60;;
29902;SDS011;30288;50.514;9.678;2022-07-06T09:54:51;4.25;;;1.65;;
29902;SDS011;30288;50.514;9.678;2022-07-06T09:57:04;3.70;;;1.40;;
29902;SDS011;30288;50.514;9.678;2022-07-06T09:59:23;7.47;;;1.60;;
29902;SDS011;30288;50.514;9.678;2022-07-06T10:01:43;5.22;;;1.80;;
29902;SDS011;30288;50.514;9.678;2022-07-06T10:03:56;7.63;;;1.42;;
29902;SDS011;30288;50.514;9.678;2022-07-06T10:06:07;5.20;;;2.05;;
29902;SDS011;30288;50.514;9.678;2022-07-06T10:08:25;6.70;;;1.60;;
29902;SDS011;30288;50.514;9.678;2022-07-06T10:10:39;4.07;;;1.80;;
29902;SDS011;30288;50.514;9.678;2022-07-06T10:12:54;4.60;;;1.80;;
29902;SDS011;30288;50.514;9.678;2022-07-06T10:15:13;6.43;;;1.38;;
29902;SDS011;30288;50.514;9.678;2022-07-06T10:17:27;6.97;;;1.67;;
29902;SDS011;30288;50.514;9.678;2022-07-06T10:19:44;4.35;;;1.00;;
29902;SDS011;30288;50.514;9.678;2022-07-06T10:21:58;4.65;;;1.38;;
29902;SDS011;30288;50.514;9.678;2022-07-06T10:24:12;3.90;;;1.00;;
29902;SDS011;30288;50.514;9.678;2022-07-06T10:26:31;4.63;;;1.17;;
29902;SDS011;30288;50.514;9.678;2022-07-06T10:28:46;5.63;;;1.38;;
29902;SDS011;30288;50.514;9.678;2022-07-06T10:31:05;6.20;;;1.50;;
29902;SDS011;30288;50.514;9.678;2022-07-06T10:33:19;3.97;;;1.63;;
29902;SDS011;30288;50.514;9.678;2022-07-06T10:35:38;4.13;;;1.40;;
29902;SDS011;30288;50.514;9.678;2022-07-06T10:38:03;3.78;;;1.15;;
29902;SDS011;30288;50.514;9.678;2022-07-06T10:40:16;5.47;;;1.50;;
29902;SDS011;30288;50.514;9.678;2022-07-06T10:42:58;4.22;;;1.40;;
29902;SDS011;30288;50.514;9.678;2022-07-06T10:45:14;4.90;;;1.58;;
29902;SDS011;30288;50.514;9.678;2022-07-06T10:47:31;5.93;;;1.60;;
29902;SDS011;30288;50.514;9.678;2022-07-06T10:49:48;4.90;;;1.60;;
29902;SDS011;30288;50.514;9.678;2022-07-06T10:52:08;4.78;;;1.42;;
29902;SDS011;30288;50.514;9.678;2022-07-06T10:54:19;9.68;;;2.50;;
29902;SDS011;30288;50.514;9.678;2022-07-06T10:56:38;4.35;;;1.20;;
29902;SDS011;30288;50.514;9.678;2022-07-06T10:58:53;4.90;;;1.50;;
29902;SDS011;30288;50.514;9.678;2022-07-06T11:01:12;6.93;;;1.40;;
29902;SDS011;30288;50.514;9.678;2022-07-06T11:03:31;2.50;;;1.15;;
29902;SDS011;30288;50.514;9.678;2022-07-06T11:05:57;7.60;;;1.30;;
29902;SDS011;30288;50.514;9.678;2022-07-06T11:08:18;5.65;;;1.40;;
29902;SDS011;30288;50.514;9.678;2022-07-06T11:10:32;4.68;;;1.15;;
29902;SDS011;30288;50.514;9.678;2022-07-06T11:13:04;5.07;;;1.10;;
29902;SDS011;30288;50.514;9.678;2022-07-06T11:20:35;3.90;;;1.10;;
29902;SDS011;30288;50.514;9.678;2022-07-06T11:22:46;3.20;;;1.10;;
29902;SDS011;30288;50.514;9.678;2022-07-06T11:24:57;3.58;;;1.10;;
29902;SDS011;30288;50.514;9.678;2022-07-06T11:27:15;5.78;;;1.30;;
29902;SDS011;30288;50.514;9.678;2022-07-06T11:29:27;3.13;;;1.00;;
29902;SDS011;30288;50.514;9.678;2022-07-06T11:31:46;3.72;;;1.30;;
29902;SDS011;30288;50.514;9.678;2022-07-06T11:34:04;4.95;;;1.40;;
29902;SDS011;30288;50.514;9.678;2022-07-06T11:36:17;4.05;;;1.50;;
29902;SDS011;30288;50.514;9.678;2022-07-06T11:38:30;3.08;;;0.98;;
29902;SDS011;30288;50.514;9.678;2022-07-06T11:40:41;5.63;;;1.10;;
29902;SDS011;30288;50.514;9.678;2022-07-06T11:42:58;6.28;;;1.20;;
29902;SDS011;30288;50.514;9.678;2022-07-06T11:45:10;5.65;;;1.27;;
29902;SDS011;30288;50.514;9.678;2022-07-06T11:47:30;6.85;;;1.60;;
29902;SDS011;30288;50.514;9.678;2022-07-06T11:49:48;4.53;;;1.23;;
29902;SDS011;30288;50.514;9.678;2022-07-06T11:52:07;4.55;;;1.20;;
29902;SDS011;30288;50.514;9.678;2022-07-06T11:54:21;4.90;;;1.33;;
29902;SDS011;30288;50.514;9.678;2022-07-06T11:56:34;4.90;;;1.15;;
29902;SDS011;30288;50.514;9.678;2022-07-06T11:58:46;3.85;;;1.02;;
29902;SDS011;30288;50.514;9.678;2022-07-06T12:01:04;4.35;;;1.40;;
29902;SDS011;30288;50.514;9.678;2022-07-06T12:03:17;8.35;;;1.48;;
29902;SDS011;30288;50.514;9.678;2022-07-06T12:05:35;4.28;;;1.30;;
29902;SDS011;30288;50.514;9.678;2022-07-06T12:07:47;5.30;;;1.50;;
29902;SDS011;30288;50.514;9.678;2022-07-06T12:10:13;2.78;;;1.13;;
29902;SDS011;30288;50.514;9.678;2022-07-06T12:12:24;4.60;;;1.38;;
29902;SDS011;30288;50.514;9.678;2022-07-06T12:14:35;7.82;;;2.53;;
29902;SDS011;30288;50.514;9.678;2022-07-06T12:16:48;3.45;;;1.30;;
29902;SDS011;30288;50.514;9.678;2022-07-06T12:21:21;3.28;;;1.38;;
29902;SDS011;30288;50.514;9.678;2022-07-06T12:23:43;3.42;;;1.27;;
29902;SDS011;30288;50.514;9.678;2022-07-06T12:25:56;3.13;;;1.10;;
29902;SDS011;30288;50.514;9.678;2022-07-06T12:28:21;3.45;;;1.45;;
29902;SDS011;30288;50.514;9.678;2022-07-06T12:30:33;3.65;;;1.40;;
29902;SDS011;30288;50.514;9.678;2022-07-06T12:33:10;5.85;;;1.67;;
29902;SDS011;30288;50.514;9.678;2022-07-06T12:35:23;5.03;;;1.30;;
29902;SDS011;30288;50.514;9.678;2022-07-06T12:37:43;2.75;;;1.00;;
29902;SDS011;30288;50.514;9.678;2022-07-06T12:40:11;5.93;;;1.50;;
29902;SDS011;30288;50.514;9.678;2022-07-06T12:42:23;3.78;;;1.20;;
29902;SDS011;30288;50.514;9.678;2022-07-06T12:44:41;3.90;;;1.08;;
29902;SDS011;30288;50.514;9.678;2022-07-06T12:49:18;5.18;;;1.45;;
29902;SDS011;30288;50.514;9.678;2022-07-06T12:56:26;3.60;;;1.20;;
29902;SDS011;30288;50.514;9.678;2022-07-06T12:58:54;3.00;;;1.15;;
29902;SDS011;30288;50.514;9.678;2022-07-06T13:01:13;4.45;;;1.40;;
29902;SDS011;30288;50.514;9.678;2022-07-06T13:03:37;3.22;;;1.08;;
29902;SDS011;30288;50.514;9.678;2022-07-06T13:05:50;2.55;;;1.25;;
29902;SDS011;30288;50.514;9.678;2022-07-06T13:08:07;4.38;;;1.08;;
29902;SDS011;30288;50.514;9.678;2022-07-06T13:10:22;6.27;;;1.43;;
29902;SDS011;30288;50.514;9.678;2022-07-06T13:12:35;2.30;;;0.98;;
29902;SDS011;30288;50.514;9.678;2022-07-06T13:14:58;5.13;;;1.10;;
29902;SDS011;30288;50.514;9.678;2022-07-06T13:17:16;3.83;;;1.13;;
29902;SDS011;30288;50.514;9.678;2022-07-06T13:19:28;3.13;;;0.97;;
29902;SDS011;30288;50.514;9.678;2022-07-06T13:21:40;3.30;;;0.90;;
29902;SDS011;30288;50.514;9.678;2022-07-06T13:23:58;5.57;;;1.10;;
29902;SDS011;30288;50.514;9.678;2022-07-06T13:26:11;2.92;;;1.02;;
29902;SDS011;30288;50.514;9.678;2022-07-06T13:28:30;3.13;;;1.00;;
29902;SDS011;30288;50.514;9.678;2022-07-06T13:30:41;2.80;;;1.10;;
29902;SDS011;30288;50.514;9.678;2022-07-06T13:32:52;2.20;;;0.80;;
29902;SDS011;30288;50.514;9.678;2022-07-06T13:35:10;1.75;;;0.93;;
29902;SDS011;30288;50.514;9.678;2022-07-06T13:37:22;6.38;;;1.20;;
29902;SDS011;30288;50.514;9.678;2022-07-06T13:39:33;4.70;;;1.00;;
29902;SDS011;30288;50.514;9.678;2022-07-06T13:41:52;4.03;;;1.00;;
29902;SDS011;30288;50.514;9.678;2022-07-06T13:44:04;4.47;;;1.10;;
29902;SDS011;30288;50.514;9.678;2022-07-06T13:46:15;5.07;;;1.00;;
29902;SDS011;30288;50.514;9.678;2022-07-06T13:48:34;4.35;;;1.05;;
29902;SDS011;30288;50.514;9.678;2022-07-06T13:50:51;3.00;;;1.17;;
29902;SDS011;30288;50.514;9.678;2022-07-06T13:53:02;4.00;;;0.80;;
29902;SDS011;30288;50.514;9.678;2022-07-06T13:55:19;2.90;;;1.00;;
29902;SDS011;30288;50.514;9.678;2022-07-06T13:57:32;2.08;;;0.98;;
29902;SDS011;30288;50.514;9.678;2022-07-06T13:59:51;1.75;;;0.88;;
29902;SDS011;30288;50.514;9.678;2022-07-06T14:02:02;2.40;;;1.02;;
29902;SDS011;30288;50.514;9.678;2022-07-06T14:04:14;3.40;;;0.90;;
29902;SDS011;30288;50.514;9.678;2022-07-06T14:06:31;3.00;;;0.80;;
29902;SDS011;30288;50.514;9.678;2022-07-06T14:08:43;2.70;;;0.88;;
29902;SDS011;30288;50.514;9.678;2022-07-06T14:11:00;2.03;;;0.90;;
29902;SDS011;30288;50.514;9.678;2022-07-06T14:27:57;3.80;;;1.00;;
29902;SDS011;30288;50.514;9.678;2022-07-06T14:30:10;2.95;;;0.90;;
29902;SDS011;30288;50.514;9.678;2022-07-06T14:32:28;3.60;;;0.85;;
29902;SDS011;30288;50.514;9.678;2022-07-06T14:34:40;4.13;;;0.85;;
29902;SDS011;30288;50.514;9.678;2022-07-06T14:36:57;4.10;;;1.05;;
29902;SDS011;30288;50.514;9.678;2022-07-06T14:39:11;2.55;;;0.63;;